Terminal Aerodrome Forecast
Issued by NWS

Home | Current Version | Previous Version | Text Only | Print | Product List | Glossary On
Versions: 1 2 3 4 5 6 7 8 9 10 11 12 13
000
FTUS44 KCRP 271100
TAFALI
TAF
KALI 271123Z 2712/2812 04007KT P6SM SKC
     FM272000 09009KT P6SM FEW035
     FM280800 VRB03KT 5SM BR SCT020=

USA.gov is the U.S. government's official web portal to all federal, state and local government web resources and services.